• Join FlightAware (Why Join?)
  • Login
  • US Flag 
Rudolph Flight #1: Arrived! 
02:39PM EST


 

Airport Tracker/Info


-or-


 

Live Flight TrackerFlight Track Log ✈ N58BS ✈ 04-May-2013 ✈ KAAF - KRBD

Flight Track Log - Related Links

Times and Time Zones

All times are in EDT time to prevent confusion due to time zone crossing. See the N58BS flight status page for this flight to view local times or setup timezone preferences in your user account.

Time Position Orientation Groundspeed Altitude Reporting Facility
EDT Latitude Longitude Course Direction KTS MPH feet Rate Location/Type
05:15PM 28.5000 -82.7667 356° North 137 158 3,500  Level Tampa TRACON
05:15PM 28.5067 -82.7672 356° North 137 158 3,600 420 Climbing Jacksonville Center
05:16PM 28.5339 -82.7933 320° Northwest 156 180 4,100 540 Climbing Jacksonville Center
05:17PM 28.5653 -82.8194 324° Northwest 144 166 4,700 540 Climbing Jacksonville Center
05:18PM 28.5986 -82.8453 326° Northwest 144 166 5,200 540 Climbing Jacksonville Center
05:19PM 28.6300 -82.8714 324° Northwest 139 160 5,800 540 Climbing Jacksonville Center
05:20PM 28.6633 -82.8972 326° Northwest 139 160 6,300 300 Climbing Jacksonville Center
05:21PM 28.6925 -82.9328 313° West 139 160 6,500 60 Climbing Jacksonville Center
05:22PM 28.7239 -82.9706 313° West 150 173 6,500  Level Jacksonville Center
05:23PM 28.7489 -83.0158 302° West 165 190 6,500  Level Jacksonville Center
05:24PM 28.7717 -83.0631 299° West 171 197 6,500  Level Jacksonville Center
05:25PM 28.7967 -83.1081 302° West 171 197 6,500  Level Jacksonville Center
05:26PM 28.8194 -83.1556 299° West 166 191 6,500  Level Jacksonville Center
05:27PM 28.8467 -83.2008 304° West 166 191 6,500  Level Jacksonville Center
05:28PM 28.8694 -83.2458 300° West 166 191 6,500  Level Jacksonville Center
05:29PM 28.8944 -83.2958 300° West 166 191 6,500  Level Jacksonville Center
05:31PM 28.8958 -83.3329 272° West  Level FlightAware Approximate
05:38PM 28.9395 -83.5723 290° West  Level FlightAware Approximate
05:39PM 28.9499 -83.6044 290° West  Level FlightAware Approximate
05:40PM 28.9602 -83.6366 290° West  Level FlightAware Approximate
05:41PM 28.9706 -83.6687 290° West  Level FlightAware Approximate
05:42PM 28.9809 -83.7009 290° West  Level FlightAware Approximate
05:43PM 28.9912 -83.7330 290° West  Level FlightAware Approximate
05:44PM 29.0016 -83.7652 290° West  Level FlightAware Approximate
05:45PM 29.0119 -83.7974 290° West  Level FlightAware Approximate
05:46PM 29.0222 -83.8296 290° West  Level FlightAware Approximate
05:47PM 29.0325 -83.8618 290° West  Level FlightAware Approximate
05:48PM 29.0427 -83.8940 290° West  Level FlightAware Approximate
05:49PM 29.0532 -83.9261 291° West  Level FlightAware Approximate
05:50PM 29.0642 -83.9580 291° West  Level FlightAware Approximate
05:51PM 29.0751 -83.9899 291° West  Level FlightAware Approximate
05:52PM 29.0861 -84.0218 291° West  Level FlightAware Approximate
05:53PM 29.0970 -84.0537 291° West  Level FlightAware Approximate
05:54PM 29.1080 -84.0857 291° West  Level FlightAware Approximate
05:55PM 29.1189 -84.1176 291° West  Level FlightAware Approximate
05:56PM 29.1298 -84.1496 291° West  Level FlightAware Approximate
05:57PM 29.1407 -84.1815 291° West  Level FlightAware Approximate
05:58PM 29.1516 -84.2135 291° West  Level FlightAware Approximate
05:58PM 29.5419 -84.6997 291° West 188 216 6,600  Level Jacksonville Center
05:59PM 29.1625 -84.2454 291° West  Level FlightAware Approximate
05:59PM 29.5578 -84.7525 289° West 188 216 6,600  Level Jacksonville Center
06:00PM 29.1734 -84.2774 291° West  Level FlightAware Approximate
06:00PM 29.5736 -84.8053 289° West 188 216 6,700  Level Jacksonville Center
06:01PM 29.1842 -84.3094 291° West  Level FlightAware Approximate
06:01PM 29.5897 -84.8581 289° West 183 211 6,700  Level Jacksonville Center
06:02PM 29.1951 -84.3414 291° West  Level FlightAware Approximate
06:02PM 29.6075 -84.9086 292° West 183 211 6,700  Level Jacksonville Center
06:03PM 29.2060 -84.3734 291° West  Level FlightAware Approximate
06:03PM 29.6236 -84.9592 290° West 183 211 6,700  Level Jacksonville Center
06:04PM 29.6394 -85.0119 289° West 177 204 6,700  Level Jacksonville Center
06:05PM 29.6531 -85.0650 286° West 172 198 6,700  Level Jacksonville Center
06:06PM 29.6711 -85.1131 293° West 172 198 6,700  Level Jacksonville Center
06:07PM 29.6867 -85.1661 289° West 172 198 6,700  Level Jacksonville Center
06:08PM 29.7025 -85.2167 290° West 172 198 6,700  Level Jacksonville Center
06:09PM 29.7183 -85.2672 290° West 172 198 6,700  Level Jacksonville Center
06:10PM 29.7342 -85.3178 290° West 172 198 6,700  Level Jacksonville Center
06:11PM 29.7478 -85.3708 286° West 172 198 6,700  Level Jacksonville Center
06:12PM 29.7656 -85.4214 292° West 172 198 6,700  Level Jacksonville Center
06:13PM 29.7811 -85.4722 289° West 172 198 6,700  Level Jacksonville Center
06:14PM 29.7969 -85.5228 290° West 172 198 6,700  Level Jacksonville Center
06:15PM 29.8106 -85.5664 290° West 172 198 6,700  Level Jacksonville Center
06:16PM 29.8261 -85.6194 289° West 172 198 6,700  Level Jacksonville Center
06:17PM 29.8417 -85.6700 290° West 172 198 6,700  Level Jacksonville Center
06:18PM 29.8572 -85.7208 289° West 172 198 6,700  Level Jacksonville Center
06:19PM 29.8728 -85.7692 290° West 172 198 6,700  Level Jacksonville Center
06:20PM 29.8864 -85.8175 288° West 172 198 6,700  Level Jacksonville Center
06:21PM 29.9019 -85.8636 291° West 172 198 6,700  Level Jacksonville Center
06:22PM 29.9156 -85.9119 288° West 167 192 6,700  Level Jacksonville Center
06:23PM 29.9289 -85.9603 288° West 167 192 6,700  Level Jacksonville Center
06:24PM 29.9447 -86.0061 292° West 167 192 6,700  Level Jacksonville Center
06:25PM 29.9581 -86.0547 288° West 167 192 6,700  Level Jacksonville Center
06:27PM 29.9589 -86.1006 271° West  Level FlightAware Approximate
06:34PM 29.9629 -86.3508 271° West  Level FlightAware Approximate
06:35PM 29.9634 -86.3866 271° West  Level FlightAware Approximate
06:36PM 29.9640 -86.4223 271° West  Level FlightAware Approximate
06:36PM 30.1100 -86.5531 298° West 157 181 6,700  Level Houston Center
06:37PM 29.9645 -86.4581 271° West  Level FlightAware Approximate
06:37PM 30.1242 -86.5989 290° West 154 177 6,700  Level Houston Center
06:38PM 29.9650 -86.4938 271° West  Level FlightAware Approximate
06:38PM 30.1339 -86.6511 282° West 154 177 6,700  Level Jacksonville Center
06:39PM 29.9655 -86.5296 271° West  Level FlightAware Approximate
06:39PM 30.1508 -86.7094 289° West 154 177 6,700  Level Jacksonville Center
06:40PM 29.9660 -86.5653 271° West  Level FlightAware Approximate
06:40PM 30.1619 -86.7556 286° West 152 175 6,700  Level Jacksonville Center
06:41PM 29.9808 -86.5970 298° West  Level FlightAware Approximate
06:41PM 30.1775 -86.7969 294° West 154 177 6,600  Level Jacksonville Center
06:42PM 30.1925 -86.8528 287° West 156 180 6,600 -60 Level Jacksonville Center
06:43PM 30.2056 -86.8989 288° West 156 180 6,500 -60 Descending Jacksonville Center
06:44PM 30.2208 -86.9453 291° West 156 180 6,500  Level Jacksonville Center
06:45PM 30.2339 -86.9914 288° West 156 180 6,500  Level Jacksonville Center
06:46PM 30.2469 -87.0400 287° West 154 177 6,500  Level Jacksonville Center
06:47PM 30.2622 -87.0864 291° West 156 180 6,500  Level Jacksonville Center
06:48PM 30.2772 -87.1353 290° West 154 177 6,500  Level Jacksonville Center
06:49PM 30.2883 -87.1814 286° West 156 180 6,500  Level Jacksonville Center
06:50PM 30.3033 -87.2325 289° West 156 180 6,500  Level Jacksonville Center
06:51PM 30.3164 -87.2789 288° West 158 182 6,500  Level Jacksonville Center
06:52PM 30.3314 -87.3253 291° West 161 185 6,500  Level Jacksonville Center
06:53PM 30.3483 -87.3814 289° West 162 186 6,500  Level Jacksonville Center
06:54PM 30.3592 -87.4275 285° West 162 186 6,500  Level Jacksonville Center
06:56PM 30.3969 -87.5364 292° West 163 188 6,500  Level Houston Center
06:57PM 30.4103 -87.5856 287° West 162 186 6,500  Level Houston Center
06:58PM 30.4247 -87.6342 289° West 160 184 6,500  Level Houston Center
06:59PM 30.4375 -87.6828 287° West 159 183 6,500  Level Houston Center
07:00PM 30.4514 -87.7314 288° West 159 183 6,500  Level Houston Center
07:01PM 30.4653 -87.7797 288° West 159 183 6,500  Level Houston Center
07:03PM 30.4794 -87.8264 289° West 156 180 6,500  Level Houston Center
07:04PM 30.4917 -87.8725 287° West 153 176 6,500  Level Houston Center
07:05PM 30.5081 -87.9289 289° West 152 175 6,500  Level Houston Center
07:06PM 30.5208 -87.9761 287° West 153 176 6,500  Level Houston Center
07:07PM 30.5344 -88.0225 289° West 153 176 6,500  Level Houston Center
07:08PM 30.5475 -88.0703 288° West 153 176 6,500  Level Houston Center
07:09PM 30.5606 -88.1183 288° West 156 180 6,500  Level Houston Center
07:10PM 30.5742 -88.1650 289° West 154 177 6,500  Level Houston Center
07:11PM 30.5878 -88.2133 288° West 155 178 6,500  Level Houston Center
07:12PM 30.6003 -88.2622 287° West 156 180 6,500  Level Houston Center
07:13PM 30.6172 -88.3189 289° West 156 180 6,500  Level Houston Center
07:14PM 30.6317 -88.3681 289° West 159 183 6,500  Level Houston Center
07:15PM 30.6450 -88.4164 288° West 158 182 6,500  Level Houston Center
07:16PM 30.6581 -88.4653 287° West 159 183 6,500  Level Houston Center
07:17PM 30.6719 -88.5133 289° West 158 182 6,500 60 Level Houston Center
07:18PM 30.6847 -88.5600 288° West 153 176 6,700 60 Climbing Houston Center
07:19PM 30.6978 -88.6069 288° West 153 176 6,700  Level Houston Center
07:20PM 30.7106 -88.6553 287° West 155 178 6,700  Level Houston Center
07:21PM 30.7244 -88.7047 288° West 159 183 6,700  Level Houston Center
07:22PM 30.7411 -88.7647 288° West 162 186 6,700  Level Houston Center
07:23PM 30.7544 -88.8142 287° West 161 185 6,700  Level Houston Center
07:24PM 30.7681 -88.8650 287° West 164 189 6,700  Level Houston Center
07:25PM 30.7819 -88.9150 288° West 164 189 6,700  Level Houston Center
07:26PM 30.7958 -88.9619 289° West 162 186 6,700  Level Houston Center
07:27PM 30.8097 -89.0131 288° West 165 190 6,700  Level Houston Center
07:28PM 30.8272 -89.0742 288° West 166 191 6,700  Level Houston Center
07:29PM 30.8414 -89.1247 288° West 166 191 6,700  Level Houston Center
07:30PM 30.8550 -89.1756 287° West 165 190 6,700  Level Houston Center
07:31PM 30.8686 -89.2258 288° West 165 190 6,700  Level Houston Center
07:32PM 30.8819 -89.2767 287° West 164 189 6,700  Level Houston Center
07:33PM 30.8953 -89.3281 287° West 165 190 6,700  Level Houston Center
07:34PM 30.9100 -89.3792 289° West 167 192 6,700  Level Houston Center
07:35PM 30.9272 -89.4403 288° West 166 191 6,700  Level Houston Center
07:36PM 30.9400 -89.4908 286° West 165 190 6,700  Level Houston Center
07:37PM 30.9542 -89.5411 288° West 164 189 6,700  Level Houston Center
07:38PM 30.9683 -89.5933 288° West 168 193 6,700  Level Houston Center
07:39PM 30.9819 -89.6453 287° West 167 192 6,700  Level Houston Center
07:40PM 30.9953 -89.6964 287° West 167 192 6,700  Level Houston Center
07:42PM 31.0092 -89.7475 288° West 167 192 6,700  Level Houston Center
07:43PM 31.0256 -89.8089 287° West 167 192 6,700  Level Houston Center
07:44PM 31.0392 -89.8600 287° West 165 190 6,700  Level Houston Center
07:45PM 31.0525 -89.9106 287° West 165 190 6,700  Level Houston Center
07:46PM 31.0658 -89.9608 287° West 164 189 6,700  Level Houston Center
07:47PM 31.0792 -90.0119 287° West 165 190 6,700  Level Houston Center
07:48PM 31.0931 -90.0633 288° West 166 191 6,700  Level Houston Center
07:49PM 31.1064 -90.1136 287° West 164 189 6,700  Level Houston Center
07:50PM 31.1217 -90.1736 287° West 162 186 6,700  Level Houston Center
07:51PM 31.1350 -90.2236 287° West 162 186 6,700  Level Houston Center
07:52PM 31.1472 -90.2733 286° West 160 184 6,700  Level Houston Center
07:53PM 31.1617 -90.3233 289° West 163 188 6,700  Level Houston Center
07:54PM 31.1744 -90.3719 287° West 159 183 6,700  Level Houston Center
07:55PM 31.1872 -90.4214 287° West 159 183 6,700  Level Houston Center
07:56PM 31.2003 -90.4692 288° West 158 182 6,700  Level Houston Center
07:57PM 31.2158 -90.5269 287° West 156 180 6,700  Level Houston Center
07:58PM 31.2283 -90.5761 287° West 157 181 6,700  Level Houston Center
07:59PM 31.2408 -90.6244 287° West 157 181 6,700  Level Houston Center
08:00PM 31.2542 -90.6736 288° West 158 182 6,700  Level Houston Center
08:01PM 31.2667 -90.7239 286° West 160 184 6,700  Level Houston Center
08:02PM 31.2800 -90.7717 288° West 157 181 6,700  Level Houston Center
08:03PM 31.2931 -90.8214 287° West 159 183 6,700  Level Houston Center
08:04PM 31.3056 -90.8711 286° West 160 184 6,700  Level Houston Center
08:05PM 31.3200 -90.9317 286° West 161 185 6,700  Level Houston Center
08:06PM 31.3331 -90.9806 287° West 159 183 6,700  Level Houston Center
08:07PM 31.3464 -91.0292 288° West 158 182 6,700  Level Houston Center
08:08PM 31.3578 -91.0806 285° West 162 186 6,700  Level Houston Center
08:09PM 31.3725 -91.1314 289° West 160 184 6,700  Level Houston Center
08:10PM 31.3842 -91.1808 285° West 158 182 6,700  Level Houston Center
08:11PM 31.3953 -91.2303 285° West 158 182 6,700  Level Houston Center
08:12PM 31.4092 -91.2775 289° West 155 178 6,700  Level Houston Center
08:13PM 31.4222 -91.3269 287° West 158 182 6,700  Level Houston Center
08:14PM 31.4353 -91.3858 285° West 157 181 6,700  Level Houston Center
08:15PM 31.4492 -91.4350 288° West 159 183 6,700 -120 Level Houston Center
08:16PM 31.4506 -91.4528 275° West 158 182 6,600  Descending Houston Center
08:16PM 31.4603 -91.4833 290° West 156 180 6,700  Climbing Houston Center
08:17PM 31.4650 -91.5075 283° West 157 181 6,600  Descending Houston Center
08:17PM 31.4725 -91.5331 289° West 157 181 6,700  Climbing Houston Center
08:18PM 31.4772 -91.5575 283° West 162 186 6,600  Descending Houston Center
08:18PM 31.4839 -91.5836 287° West 159 183 6,700  Climbing Houston Center
08:19PM 31.4892 -91.6078 284° West 160 184 6,600  Descending Houston Center
08:19PM 31.4978 -91.6336 291° West 160 184 6,700  Climbing Houston Center
08:20PM 31.5036 -91.6600 285° West 160 184 6,600  Descending Houston Center
08:20PM 31.5103 -91.6842 288° West 161 185 6,700  Climbing Houston Center
08:21PM 31.5156 -91.7103 283° West 161 185 6,600  Descending Houston Center
08:21PM 31.5222 -91.7339 288° West 160 184 6,700  Climbing Houston Center
08:22PM 31.5278 -91.7603 284° West 158 182 6,600  Descending Houston Center
08:23PM 31.5378 -91.7925 290° West 159 183 6,700  Climbing Houston Center
08:23PM 31.5394 -91.8081 277° West 158 182 6,600  Descending Houston Center
08:24PM 31.5497 -91.8428 289° West 159 183 6,700  Climbing Houston Center
08:24PM 31.5517 -91.8608 277° West 159 183 6,600  Descending Houston Center
08:25PM 31.5614 -91.8922 290° West 159 183 6,700  Climbing Houston Center
08:25PM 31.5656 -91.9083 287° West 161 185 6,600  Descending Houston Center
08:26PM 31.5736 -91.9419 286° West 159 183 6,700  Climbing Houston Center
08:26PM 31.5778 -91.9611 284° West 159 183 6,600  Descending Houston Center
08:27PM 31.5861 -91.9914 288° West 159 183 6,700  Climbing Houston Center
08:27PM 31.5897 -92.0136 281° West 161 185 6,600  Descending Houston Center
08:28PM 31.5983 -92.0431 289° West 161 185 6,700  Climbing Houston Center
08:28PM 31.6017 -92.0639 281° West 165 190 6,600  Descending Houston Center
08:29PM 31.6117 -92.0942 291° West 163 188 6,700  Climbing Houston Center
08:29PM 31.6158 -92.1164 282° West 166 191 6,600  Descending Houston Center
08:30PM 31.6242 -92.1458 288° West 164 189 6,700  Climbing Houston Center
08:30PM 31.6278 -92.1667 282° West 163 188 6,600  Descending Houston Center
08:31PM 31.6394 -92.2061 289° West 163 188 6,700  Climbing Houston Center
08:32PM 31.6511 -92.2581 285° West 164 189 6,700  Level Houston Center
08:33PM 31.6642 -92.3086 287° West 163 188 6,700  Level Houston Center
08:34PM 31.6756 -92.3575 285° West 159 183 6,700  Level Houston Center
08:35PM 31.6872 -92.4075 285° West 159 183 6,700  Level Houston Center
08:36PM 31.6997 -92.4575 286° West 161 185 6,700  Level Houston Center
08:37PM 31.7119 -92.5086 286° West 161 185 6,700  Level Houston Center
08:38PM 31.7244 -92.5589 286° West 162 186 6,700  Level Houston Center
08:39PM 31.7364 -92.6097 285° West 162 186 6,700  Level Houston Center
08:40PM 31.7519 -92.6769 285° West 160 184 6,700  Level Houston Center
08:41PM 31.7619 -92.7203 285° West 160 184 6,800  Climbing Houston Center
08:42PM 31.7733 -92.7803 283° West 162 186 6,700  Descending Houston Center
08:43PM 31.7833 -92.8231 285° West 162 186 6,800  Climbing Houston Center
08:44PM 31.7947 -92.8742 285° West 162 186 6,800  Level Houston Center
08:45PM 31.8053 -92.9247 284° West 160 184 6,800  Level Houston Center
08:46PM 31.8164 -92.9758 284° West 162 186 6,800  Level Houston Center
08:47PM 31.8269 -93.0264 284° West 161 185 6,800  Level Houston Center
08:48PM 31.8386 -93.0764 285° West 158 182 6,800  Level Houston Center
08:49PM 31.8500 -93.1264 285° West 159 183 6,800  Level Houston Center
08:50PM 31.8667 -93.1853 288° West 159 183 6,800  Level Houston Center
08:51PM 31.8769 -93.2356 284° West 159 183 6,800  Level Houston Center
08:52PM 31.8883 -93.2839 286° West 154 177 6,800 -60 Level Houston Center
08:53PM 31.8992 -93.3392 283° West 159 183 6,700 -60 Descending Fort Worth Center
08:54PM 31.9114 -93.4000 283° West 157 181 6,700 -120 Level Fort Worth Center
08:55PM 31.9236 -93.4508 286° West 159 183 6,500 -300 Descending Fort Worth Center
08:56PM 31.9356 -93.5017 285° West 162 186 6,200 -300 Descending Fort Worth Center
08:57PM 31.9494 -93.5500 289° West 160 184 6,000 -300 Descending Fort Worth Center
08:58PM 31.9597 -93.6058 282° West 161 185 5,700 -300 Descending Fort Worth Center
08:59PM 31.9717 -93.6569 285° West 163 188 5,500 -240 Descending Fort Worth Center
09:00PM 31.9858 -93.7125 287° West 160 184 5,200 -360 Descending Fort Worth Center
09:02PM 32.0000 -93.7708 286° West 163 188 4,800 -360 Descending Fort Worth Center
09:02PM 32.0075 -93.8097 283° West 167 192 4,600 -120 Descending Fort Worth Center
09:03PM 32.0236 -93.8631 290° West 166 191 4,600  Level Fort Worth Center
09:04PM 32.0311 -93.9092 281° West 159 183 4,600  Level Fort Worth Center
09:05PM 32.0408 -93.9603 283° West 160 184 4,600  Level Fort Worth Center
09:06PM 32.0547 -94.0064 290° West 160 184 4,600  Level Fort Worth Center
09:07PM 32.0664 -94.0597 284° West 158 182 4,600 -60 Level Fort Worth Center
09:09PM 32.0775 -94.1161 283° West  Level FlightAware Approximate
09:16PM 32.1519 -94.4572 287° West  Level FlightAware Approximate
09:17PM 32.1639 -94.5055 286° West  Level FlightAware Approximate
09:18PM 32.1760 -94.5538 286° West  Level FlightAware Approximate
09:19PM 32.1874 -94.6023 284° West  Level FlightAware Approximate
09:20PM 32.1977 -94.6512 284° West  Level FlightAware Approximate
09:21PM 32.2080 -94.7001 284° West  Level FlightAware Approximate
09:22PM 32.2183 -94.7489 284° West  Level FlightAware Approximate
09:23PM 32.2286 -94.7978 284° West  Level FlightAware Approximate
09:24PM 32.2388 -94.8467 284° West  Level FlightAware Approximate
09:25PM 32.2491 -94.8957 284° West  Level FlightAware Approximate
09:26PM 32.2594 -94.9446 284° West  Level FlightAware Approximate
09:27PM 32.2698 -94.9935 284° West  Level FlightAware Approximate
09:28PM 32.2801 -95.0424 284° West  Level FlightAware Approximate
09:29PM 32.2904 -95.0913 284° West  Level FlightAware Approximate
09:30PM 32.3007 -95.1403 284° West  Level FlightAware Approximate
09:31PM 32.3109 -95.1892 284° West  Level FlightAware Approximate
09:32PM 32.3216 -95.2380 285° West  Level FlightAware Approximate
09:33PM 32.3329 -95.2867 285° West  Level FlightAware Approximate
09:34PM 32.3442 -95.3353 285° West  Level FlightAware Approximate
09:35PM 32.3554 -95.3840 285° West  Level FlightAware Approximate
09:36PM 32.3666 -95.4327 285° West  Level FlightAware Approximate
09:37PM 32.3778 -95.4814 285° West  Level FlightAware Approximate
09:38PM 32.3890 -95.5301 285° West  Level FlightAware Approximate
09:39PM 32.4002 -95.5788 285° West  Level FlightAware Approximate
09:40PM 32.4113 -95.6275 285° West  Level FlightAware Approximate
09:41PM 32.4225 -95.6763 285° West  Level FlightAware Approximate
09:42PM 32.4336 -95.7251 285° West  Level FlightAware Approximate
09:43PM 32.4447 -95.7738 285° West  Level FlightAware Approximate
09:44PM 32.4557 -95.8226 285° West  Level FlightAware Approximate
09:50PM 32.5218 -96.1155 285° West  Level FlightAware Approximate
09:51PM 32.5327 -96.1644 285° West  Level FlightAware Approximate
09:52PM 32.5436 -96.2133 285° West  Level FlightAware Approximate
09:52PM 32.5833 -96.3667 289° West 165 190 2,400  Level Dallas / Fort Worth TRACON
09:53PM 32.5545 -96.2622 285° West  Level FlightAware Approximate
09:53PM 32.5833 -96.4333 270° West 163 188 2,400  Level Dallas / Fort Worth TRACON
09:54PM 32.5654 -96.3111 285° West  Level FlightAware Approximate
09:54PM 32.6000 -96.4833 292° West 164 189 2,400  Level Dallas / Fort Worth TRACON
09:55PM 32.5722 -96.3610 278° West  Level FlightAware Approximate
09:55PM 32.6167 -96.5333 292° West 167 192 2,400  Level Dallas / Fort Worth TRACON
09:56PM 32.5785 -96.4110 278° West  Level FlightAware Approximate
09:56PM 32.6167 -96.5833 270° West 167 192 2,300  Level Dallas / Fort Worth TRACON
09:57PM 32.5864 -96.4606 289° West  Level FlightAware Approximate
09:57PM 32.6167 -96.6500 270° West 179 206 2,000  Level Dallas / Fort Worth TRACON
09:58PM 32.6167 -96.7000 270° West 176 203 2,000 -180 Level Dallas / Fort Worth TRACON
09:59PM 32.6167 -96.7500 270° West 173 199 1,700 -300 Descending Dallas / Fort Worth TRACON
10:00PM 32.6333 -96.8167 287° West 153 176 1,500 -300 Descending Dallas / Fort Worth TRACON
10:01PM 32.6667 -96.8500 320° Northwest 127 146 1,100 -420 Descending Dallas / Fort Worth TRACON
10:03PM 32.6667 -96.8667 270° West  Level FlightAware Approximate
10:10PM 32.6809 -96.8682 270° West  Level Estimated
10:11PM 32.6809 -96.8682 270° West  Level Estimated
10:12PM 32.6809 -96.8682 270° West  Level Estimated
10:13PM 32.6809 -96.8682 270° West  Level Estimated
10:14PM 32.6809 -96.8682 270° West  Level Estimated
10:15PM 32.6809 -96.8682 270° West  Level Estimated
10:16PM 32.6809 -96.8682 270° West  Level Estimated
10:17PM 32.6809 -96.8682 270° West  Level Estimated
10:18PM 32.6809 -96.8682 270° West  Level Estimated
10:19PM 32.6809 -96.8682 270° West  Level Estimated
10:20PM 32.6809 -96.8682 270° West  Level Estimated
10:21PM 32.6809 -96.8682 270° West  Level Estimated
10:22PM 32.6809 -96.8682 270° West  Level Estimated
10:23PM 32.6809 -96.8682 270° West  Level Estimated
10:24PM 32.6809 -96.8682 270° West  Level Estimated
10:25PM 32.6809 -96.8682 270° West  Level Estimated
10:26PM 32.6809 -96.8682 270° West  Level Estimated
10:27PM 32.6809 -96.8682 270° West  Level Estimated
10:28PM 32.6809 -96.8682 270° West  Level Estimated
10:29PM 32.6809 -96.8682 270° West  Level Estimated
10:30PM 32.6809 -96.8682 270° West  Level Estimated
10:31PM 32.6809 -96.8682 270° West  Level Estimated
10:32PM 32.6809 -96.8682 270° West  Level Estimated
10:33PM 32.6809 -96.8682 270° West  Level Estimated
10:34PM 32.6809 -96.8682 270° West  Level Estimated